Airfield :
LOGIN :

Register | Disclaimer

   EN    FR    IT 

 










Legend :    VFR   Marginal VFR   IFR   Intensive IFR   Very Intensive IFR
Visi :
Ceiling :
>= 8 km
>= 3000ft
5 to 8 km
1000 to 3000 ft
1500m to 5 km
500 to 1000 ft
800 to 1500m
200 to 500 ft
< 800m
< 200 ft
Symbols :   Thunderstorms  Fog  Heavy snow  Heavy precipitations  Wind > 20 kt
SIGMETs :     Misc.  Thunderstorms  Icing  Turbulence  Mountain Waves  Volcanic Ashes







- Airport Elevation : 1860 ft
- IATA code : GRX


LEGR - Granada

CURRENT METAR :
  • 231930Z VRB02KT 9999 FEW050 18/08 Q1016

EXPIRED METARs :
  • 231900Z 28003KT 250V310 9999 FEW050CB 21/08 Q1015
  • 231830Z 24008KT 220V280 9999 FEW040CB 23/08 Q1015
  • 231800Z 25009KT 210V280 9999 FEW040CB 24/08 Q1014
  • 231730Z 25009KT 230V290 9999 FEW040TCU 25/09 Q1014
  • 231700Z 26011KT 230V300 9999 FEW040TCU 26/08 Q1014

TAF TAF LEGR
Valid from the 23 at 15:00 until the 24 at 15:00 UTC


231400Z 2315/2415 14004KT 9999 SCT040 TX27/2415Z TN09/2405Z
TEMPO 2315/2320 SCT040CB
PROB30
TEMPO 2315/2320 4000 SHRA SCT040CB BKN070
TEMPO 2412/2415 SCT040CB
No reported NOTAMs for that airfield.
1 SIGMET reported for the Madrid FIR (LECM) :
 
Embedded thunderstorms
LECM SIGMET 3 VALID 231800/232000 LEVA
LECM MADRID FIR/UIR EMBD TS OBS AT 1750Z WI N39 W00420 - N39 W002 - N3710 W00230 - N3710 W00420 TOP FL380 STNR NC=



MET'MAP, your aeronautical weather chart ! - Copyright ORBIFLY December 2007 - Disclaimer

ORBIFLY MET'MAP TEAM :

Programming & Development : Alexandra Zaïnal
Concept & Development : Baudouin d'Aumeries
Co-Development & Prog : Marc-Olivier Méhu
Technical & hardware support : Manuel Goepfert

Contact : metmap@orbifly.com




SOURCES & CREDITS :

   NOAA